Clyde, Missouri
Current Conditions -  °F | °C
As of 10:35 AM on Wednesday 22 Oct 2014 (Local Time) from KICL Reporting Station
Scattered Clouds Scattered Clouds  
Wind Chill: 57°   Ceiling: Unl
Heat Index: 57°   Visibility: 10mi
Dew Point: 45°   Wind: 13mph
Humidity: 63%   Direction: 150°SSE
Pressure: 30.18"   Gusts: NA
Location:  40.27°N, 94.67°W
Report Text: KICL 221535Z AUTO 15011KT 10SM SCT065 SCT075 14/07 A3018 RMK AO2
Loading
Personal Weather Stations






























Interactive Weather Map
Tropical Storm Tracking
New forecast layout! Learn more

10-Day Weather Forecast

Advertisements
Track Severe Weather on mobile